Time,TemperatureF,DewpointF,PressureIn,WindDirection,WindDirectionDegrees,WindSpeedMPH,WindSpeedGustMPH,Humidity,HourlyPrecipIn,Conditions,Clouds,dailyrainin,SoftwareType,DateUTC
2013-01-20 00:00:00,38.2,29.3,30.16,SW,235,0.0,0.0,70,0.00,,,0.00,Wunderground v.1.15,2013-01-20 06:00:00,
2013-01-20 00:10:00,37.2,29.0,30.17,SW,235,0.0,0.0,72,0.00,,,0.00,Wunderground v.1.15,2013-01-20 06:10:00,
2013-01-20 00:15:00,36.9,28.7,30.17,SW,235,0.0,0.0,72,0.00,,,0.00,Wunderground v.1.15,2013-01-20 06:15:00,
2013-01-20 00:20:00,36.7,28.5,30.17,WSW,240,0.0,0.0,72,0.00,,,0.00,Wunderground v.1.15,2013-01-20 06:20:00,
2013-01-20 00:30:00,36.7,28.5,30.17,WSW,240,0.0,0.0,72,0.00,,,0.00,Wunderground v.1.15,2013-01-20 06:30:00,
2013-01-20 00:35:00,36.7,28.5,30.17,ENE,60,0.0,0.0,72,0.00,,,0.00,Wunderground v.1.15,2013-01-20 06:35:00,
2013-01-20 00:45:00,36.3,28.8,30.18,ENE,61,0.0,0.0,74,0.00,,,0.00,Wunderground v.1.15,2013-01-20 06:45:00,
2013-01-20 00:50:00,36.1,28.9,30.18,ENE,61,0.0,0.0,75,0.00,,,0.00,Wunderground v.1.15,2013-01-20 06:50:00,
2013-01-20 00:55:00,36.2,29.0,30.18,ENE,61,0.0,1.0,75,0.00,,,0.00,Wunderground v.1.15,2013-01-20 06:55:00,
2013-01-20 01:05:00,36.4,29.6,30.19,ENE,61,0.0,1.0,76,0.00,,,0.00,Wunderground v.1.15,2013-01-20 07:05:00,
2013-01-20 01:10:00,36.5,29.7,30.19,ENE,61,0.0,0.0,76,0.00,,,0.00,Wunderground v.1.15,2013-01-20 07:10:00,
2013-01-20 01:15:00,36.4,29.6,30.19,SSE,160,1.0,1.0,76,0.00,,,0.00,Wunderground v.1.15,2013-01-20 07:15:00,
2013-01-20 01:20:00,36.3,29.5,30.19,South,184,1.0,1.0,76,0.00,,,0.00,Wunderground v.1.15,2013-01-20 07:20:00,
2013-01-20 01:25:00,36.3,29.5,30.19,South,181,1.0,1.0,76,0.00,,,0.00,Wunderground v.1.15,2013-01-20 07:25:00,
2013-01-20 01:35:00,35.8,29.3,30.19,South,179,1.0,1.0,77,0.00,,,0.00,Wunderground v.1.15,2013-01-20 07:35:00,
2013-01-20 01:45:00,35.2,28.7,30.20,South,179,0.0,1.0,77,0.00,,,0.00,Wunderground v.1.15,2013-01-20 07:45:00,
2013-01-20 01:50:00,34.8,28.3,30.20,South,169,1.0,1.0,77,0.00,,,0.00,Wunderground v.1.15,2013-01-20 07:50:00,
2013-01-20 01:55:00,34.7,27.3,30.21,SSW,200,1.0,1.0,74,0.00,,,0.00,Wunderground v.1.15,2013-01-20 07:55:00,
2013-01-20 02:00:00,34.7,24.9,30.20,SSE,165,1.0,2.0,67,0.00,,,0.00,Wunderground v.1.15,2013-01-20 08:00:00,
2013-01-20 02:10:00,34.5,23.2,30.21,SSE,160,1.0,1.0,63,0.00,,,0.00,Wunderground v.1.15,2013-01-20 08:10:00,
2013-01-20 02:15:00,34.3,23.0,30.21,SW,215,1.0,1.0,63,0.00,,,0.00,Wunderground v.1.15,2013-01-20 08:15:00,
2013-01-20 02:20:00,34.0,22.7,30.21,SW,215,0.0,0.0,63,0.00,,,0.00,Wunderground v.1.15,2013-01-20 08:20:00,
2013-01-20 02:25:00,33.7,22.4,30.21,SW,215,0.0,0.0,63,0.00,,,0.00,Wunderground v.1.15,2013-01-20 08:25:00,
2013-01-20 02:35:00,33.5,22.2,30.22,SSW,200,0.0,0.0,63,0.00,,,0.00,Wunderground v.1.15,2013-01-20 08:35:00,
2013-01-20 02:45:00,33.3,21.7,30.22,SSW,200,0.0,1.0,62,0.00,,,0.00,Wunderground v.1.15,2013-01-20 08:45:00,
2013-01-20 02:50:00,33.1,21.5,30.22,SSW,200,0.0,0.0,62,0.00,,,0.00,Wunderground v.1.15,2013-01-20 08:50:00,
2013-01-20 02:55:00,32.8,21.2,30.22,SSW,200,1.0,1.0,62,0.00,,,0.00,Wunderground v.1.15,2013-01-20 08:55:00,
2013-01-20 03:00:00,32.5,21.3,30.22,SSW,196,1.0,1.0,63,0.00,,,0.00,Wunderground v.1.15,2013-01-20 09:00:00,
2013-01-20 03:10:00,32.1,21.3,30.23,SSW,197,0.0,1.0,64,0.00,,,0.00,Wunderground v.1.15,2013-01-20 09:10:00,
2013-01-20 03:15:00,31.8,20.6,30.22,SSW,197,0.0,1.0,63,0.00,,,0.00,Wunderground v.1.15,2013-01-20 09:15:00,
2013-01-20 03:20:00,31.5,20.3,30.22,SSW,197,1.0,1.0,63,0.00,,,0.00,Wunderground v.1.15,2013-01-20 09:20:00,
2013-01-20 03:25:00,31.2,20.1,30.22,SSW,195,1.0,1.0,63,0.00,,,0.00,Wunderground v.1.15,2013-01-20 09:25:00,
2013-01-20 03:30:00,31.0,19.5,30.22,SSW,195,1.0,1.0,62,0.00,,,0.00,Wunderground v.1.15,2013-01-20 09:30:00,
2013-01-20 03:35:00,30.8,18.9,30.22,SSW,195,1.0,1.0,61,0.00,,,0.00,Wunderground v.1.15,2013-01-20 09:35:00,
2013-01-20 03:40:00,30.7,18.8,30.22,SSW,194,1.0,2.0,61,0.00,,,0.00,Wunderground v.1.15,2013-01-20 09:40:00,
2013-01-20 03:50:00,30.1,17.9,30.21,SSW,194,1.0,1.0,60,0.00,,,0.00,Wunderground v.1.15,2013-01-20 09:50:00,
2013-01-20 03:55:00,29.8,18.0,30.21,SSW,194,0.0,1.0,61,0.00,,,0.00,Wunderground v.1.15,2013-01-20 09:55:00,
2013-01-20 04:00:00,29.4,17.6,30.21,SSW,194,0.0,0.0,61,0.00,,,0.00,Wunderground v.1.15,2013-01-20 10:00:00,
2013-01-20 04:10:00,28.7,16.9,30.21,SSW,194,0.0,0.0,61,0.00,,,0.00,Wunderground v.1.15,2013-01-20 10:10:00,
2013-01-20 04:20:00,28.1,16.4,30.21,SSW,194,1.0,1.0,61,0.00,,,0.00,Wunderground v.1.15,2013-01-20 10:20:00,
2013-01-20 04:25:00,27.8,16.1,30.21,SSW,194,0.0,1.0,61,0.00,,,0.00,Wunderground v.1.15,2013-01-20 10:25:00,
2013-01-20 04:35:00,27.3,16.0,30.21,SSW,195,0.0,0.0,62,0.00,,,0.00,Wunderground v.1.15,2013-01-20 10:35:00,
2013-01-20 04:40:00,27.1,15.8,30.21,SSW,194,0.0,1.0,62,0.00,,,0.00,Wunderground v.1.15,2013-01-20 10:40:00,
2013-01-20 04:50:00,27.0,16.1,30.22,South,191,0.0,1.0,63,0.00,,,0.00,Wunderground v.1.15,2013-01-20 10:50:00,
2013-01-20 04:55:00,26.9,16.3,30.22,South,191,0.0,1.0,64,0.00,,,0.00,Wunderground v.1.15,2013-01-20 10:55:00,
2013-01-20 05:00:00,26.6,16.1,30.23,South,191,0.0,0.0,64,0.00,,,0.00,Wunderground v.1.15,2013-01-20 11:00:00,
2013-01-20 05:10:00,25.9,16.4,30.23,South,191,0.0,0.0,67,0.00,,,0.00,Wunderground v.1.15,2013-01-20 11:10:00,
2013-01-20 05:15:00,25.6,16.2,30.24,South,191,0.0,0.0,67,0.00,,,0.00,Wunderground v.1.15,2013-01-20 11:15:00,
2013-01-20 05:20:00,25.4,16.0,30.24,South,191,0.0,0.0,67,0.00,,,0.00,Wunderground v.1.15,2013-01-20 11:20:00,
2013-01-20 05:30:00,25.2,16.1,30.24,South,191,0.0,0.0,68,0.00,,,0.00,Wunderground v.1.15,2013-01-20 11:30:00,
2013-01-20 05:35:00,25.1,16.4,30.24,South,191,0.0,0.0,69,0.00,,,0.00,Wunderground v.1.15,2013-01-20 11:35:00,
2013-01-20 05:45:00,25.0,15.6,30.25,SSW,193,0.0,1.0,67,0.00,,,0.00,Wunderground v.1.15,2013-01-20 11:45:00,
2013-01-20 05:50:00,25.1,15.0,30.24,SW,228,0.0,0.0,65,0.00,,,0.00,Wunderground v.1.15,2013-01-20 11:50:00,
2013-01-20 05:55:00,25.2,15.1,30.24,SW,228,0.0,0.0,65,0.00,,,0.00,Wunderground v.1.15,2013-01-20 11:55:00,
2013-01-20 06:00:00,25.1,14.6,30.24,WSW,250,0.0,1.0,64,0.00,,,0.00,Wunderground v.1.15,2013-01-20 12:00:00,
2013-01-20 06:10:00,24.7,13.5,30.24,SW,230,1.0,1.0,62,0.00,,,0.00,Wunderground v.1.15,2013-01-20 12:10:00,
2013-01-20 06:15:00,24.4,14.0,30.24,SW,229,0.0,1.0,64,0.00,,,0.00,Wunderground v.1.15,2013-01-20 12:15:00,
2013-01-20 06:20:00,24.2,14.1,30.24,WSW,239,0.0,1.0,65,0.00,,,0.00,Wunderground v.1.15,2013-01-20 12:20:00,
2013-01-20 06:25:00,24.0,13.6,30.23,WSW,240,0.0,1.0,64,0.00,,,0.00,Wunderground v.1.15,2013-01-20 12:25:00,
2013-01-20 06:30:00,23.8,13.4,30.23,SW,231,0.0,0.0,64,0.00,,,0.00,Wunderground v.1.15,2013-01-20 12:30:00,
2013-01-20 06:40:00,23.7,13.6,30.24,SW,222,1.0,1.0,65,0.00,,,0.00,Wunderground v.1.15,2013-01-20 12:40:00,
2013-01-20 06:45:00,23.6,13.5,30.24,SW,226,1.0,1.0,65,0.00,,,0.00,Wunderground v.1.15,2013-01-20 12:45:00,
2013-01-20 06:55:00,23.3,13.6,30.24,West,277,0.0,1.0,66,0.00,,,0.00,Wunderground v.1.15,2013-01-20 12:55:00,
2013-01-20 07:00:00,23.1,13.4,30.24,WSW,240,0.0,0.0,66,0.00,,,0.00,Wunderground v.1.15,2013-01-20 13:00:00,
2013-01-20 07:10:00,22.8,13.1,30.24,WSW,257,1.0,1.0,66,0.00,,,0.00,Wunderground v.1.15,2013-01-20 13:10:00,
2013-01-20 07:15:00,22.7,13.4,30.24,SSW,210,0.0,1.0,67,0.00,,,0.00,Wunderground v.1.15,2013-01-20 13:15:00,
2013-01-20 07:25:00,22.5,13.2,30.24,WSW,257,0.0,0.0,67,0.00,,,0.00,Wunderground v.1.15,2013-01-20 13:25:00,
2013-01-20 07:35:00,22.3,13.3,30.24,SSW,207,0.0,0.0,68,0.00,,,0.00,Wunderground v.1.15,2013-01-20 13:35:00,
2013-01-20 07:40:00,22.3,13.7,30.24,SW,218,0.0,0.0,69,0.00,,,0.00,Wunderground v.1.15,2013-01-20 13:40:00,
2013-01-20 07:45:00,22.3,13.3,30.24,WSW,254,1.0,1.0,68,0.00,,,0.00,Wunderground v.1.15,2013-01-20 13:45:00,
2013-01-20 07:50:00,22.4,13.4,30.23,SW,230,1.0,1.0,68,0.00,,,0.00,Wunderground v.1.15,2013-01-20 13:50:00,
2013-01-20 07:55:00,22.5,13.5,30.23,SW,232,2.0,2.0,68,0.00,,,0.00,Wunderground v.1.15,2013-01-20 13:55:00,
2013-01-20 08:00:00,22.7,13.7,30.23,SW,235,2.0,3.0,68,0.00,,,0.00,Wunderground v.1.15,2013-01-20 14:00:00,
2013-01-20 08:10:00,22.9,13.9,30.23,SW,224,2.0,2.0,68,0.00,,,0.00,Wunderground v.1.15,2013-01-20 14:10:00,
2013-01-20 08:15:00,22.9,13.6,30.24,WSW,255,2.0,2.0,67,0.00,,,0.00,Wunderground v.1.15,2013-01-20 14:15:00,
2013-01-20 08:20:00,23.1,13.8,30.24,SW,220,2.0,2.0,67,0.00,,,0.00,Wunderground v.1.15,2013-01-20 14:20:00,
2013-01-20 08:30:00,23.7,14.0,30.24,WSW,255,2.0,2.0,66,0.00,,,0.00,Wunderground v.1.15,2013-01-20 14:30:00,
2013-01-20 08:35:00,24.1,14.4,30.23,WSW,248,2.0,2.0,66,0.00,,,0.00,Wunderground v.1.15,2013-01-20 14:35:00,
2013-01-20 08:40:00,24.2,14.5,30.23,SW,232,3.0,9.0,66,0.00,,,0.00,Wunderground v.1.15,2013-01-20 14:40:00,
2013-01-20 08:45:00,24.3,14.6,30.23,WSW,256,4.0,9.0,66,0.00,,,0.00,Wunderground v.1.15,2013-01-20 14:45:00,
2013-01-20 08:50:00,24.5,14.4,30.23,WSW,246,3.0,3.0,65,0.00,,,0.00,Wunderground v.1.15,2013-01-20 14:50:00,
2013-01-20 08:55:00,24.6,14.5,30.23,SW,231,3.0,3.0,65,0.00,,,0.00,Wunderground v.1.15,2013-01-20 14:55:00,
2013-01-20 09:05:00,25.2,14.4,30.23,SW,218,3.0,3.0,63,0.00,,,0.00,Wunderground v.1.15,2013-01-20 15:05:00,
2013-01-20 09:10:00,25.5,14.6,30.23,WSW,243,4.0,7.0,63,0.00,,,0.00,Wunderground v.1.15,2013-01-20 15:10:00,
2013-01-20 09:15:00,25.6,14.0,30.23,WSW,242,4.0,8.0,61,0.00,,,0.00,Wunderground v.1.15,2013-01-20 15:15:00,
2013-01-20 09:20:00,25.5,13.1,30.24,WSW,239,4.0,4.0,59,0.00,,,0.00,Wunderground v.1.15,2013-01-20 15:20:00,
2013-01-20 09:25:00,25.3,13.0,30.24,WSW,243,4.0,4.0,59,0.00,,,0.00,Wunderground v.1.15,2013-01-20 15:25:00,
2013-01-20 09:30:00,25.3,13.7,30.25,WSW,249,3.0,3.0,61,0.00,,,0.00,Wunderground v.1.15,2013-01-20 15:30:00,
2013-01-20 09:35:00,25.7,14.1,30.25,SW,232,3.0,3.0,61,0.00,,,0.00,Wunderground v.1.15,2013-01-20 15:35:00,
2013-01-20 09:45:00,26.5,13.3,30.25,SW,226,3.0,4.0,57,0.00,,,0.00,Wunderground v.1.15,2013-01-20 15:45:00,
2013-01-20 09:50:00,26.7,13.5,30.25,West,271,4.0,5.0,57,0.00,,,0.00,Wunderground v.1.15,2013-01-20 15:50:00,
2013-01-20 09:55:00,26.9,13.7,30.25,WSW,255,4.0,5.0,57,0.00,,,0.00,Wunderground v.1.15,2013-01-20 15:55:00,
2013-01-20 10:00:00,27.4,13.3,30.26,WSW,245,3.0,4.0,55,0.00,,,0.00,Wunderground v.1.15,2013-01-20 16:00:00,
2013-01-20 10:15:00,28.3,13.8,30.27,SSW,211,3.0,4.0,54,0.00,,,0.00,Wunderground v.1.15,2013-01-20 16:15:00,
2013-01-20 10:20:00,28.5,14.8,30.27,WSW,252,2.0,2.0,56,0.00,,,0.00,Wunderground v.1.15,2013-01-20 16:20:00,
2013-01-20 10:25:00,29.1,14.5,30.28,West,260,2.0,3.0,54,0.00,,,0.00,Wunderground v.1.15,2013-01-20 16:25:00,
2013-01-20 10:35:00,29.1,15.3,30.28,SW,222,3.0,5.0,56,0.00,,,0.00,Wunderground v.1.15,2013-01-20 16:35:00,
2013-01-20 10:40:00,29.6,14.5,30.28,WSW,243,2.0,2.0,53,0.00,,,0.00,Wunderground v.1.15,2013-01-20 16:40:00,
2013-01-20 10:45:00,29.9,15.3,30.28,West,273,2.0,2.0,54,0.00,,,0.00,Wunderground v.1.15,2013-01-20 16:45:00,
2013-01-20 10:50:00,30.0,14.9,30.28,SSE,152,2.0,2.0,53,0.00,,,0.00,Wunderground v.1.15,2013-01-20 16:50:00,
2013-01-20 11:00:00,29.9,14.4,30.28,West,259,2.0,2.0,52,0.00,,,0.00,Wunderground v.1.15,2013-01-20 17:00:00,
2013-01-20 11:10:00,29.8,13.9,30.26,SW,231,3.0,3.0,51,0.00,,,0.00,Wunderground v.1.15,2013-01-20 17:10:00,
2013-01-20 11:15:00,29.9,13.9,30.27,SW,230,3.0,4.0,51,0.00,,,0.00,Wunderground v.1.15,2013-01-20 17:15:00,
2013-01-20 11:20:00,30.5,14.5,30.27,WSW,249,3.0,3.0,51,0.00,,,0.00,Wunderground v.1.15,2013-01-20 17:20:00,
2013-01-20 11:25:00,30.4,14.0,30.26,SSW,205,3.0,3.0,50,0.00,,,0.00,Wunderground v.1.15,2013-01-20 17:25:00,
2013-01-20 11:30:00,30.5,14.0,30.26,WSW,248,3.0,5.0,50,0.00,,,0.00,Wunderground v.1.15,2013-01-20 17:30:00,
2013-01-20 11:40:00,30.7,14.7,30.25,NW,305,3.0,4.0,51,0.00,,,0.00,Wunderground v.1.15,2013-01-20 17:40:00,
2013-01-20 11:45:00,30.9,14.0,30.25,SW,222,3.0,4.0,49,0.00,,,0.00,Wunderground v.1.15,2013-01-20 17:45:00,
2013-01-20 11:50:00,31.1,13.7,30.25,WSW,257,4.0,4.0,48,0.00,,,0.00,Wunderground v.1.15,2013-01-20 17:50:00,
2013-01-20 12:00:00,31.8,14.8,30.25,West,269,2.0,2.0,49,0.00,,,0.00,Wunderground v.1.15,2013-01-20 18:00:00,
2013-01-20 12:10:00,32.7,13.7,30.24,WSW,238,2.0,2.0,45,0.00,,,0.00,Wunderground v.1.15,2013-01-20 18:10:00,
2013-01-20 12:15:00,32.6,13.6,30.24,West,264,2.0,2.0,45,0.00,,,0.00,Wunderground v.1.15,2013-01-20 18:15:00,
2013-01-20 12:25:00,33.0,12.9,30.23,SW,232,2.0,4.0,43,0.00,,,0.00,Wunderground v.1.15,2013-01-20 18:25:00,
2013-01-20 12:30:00,32.4,11.8,30.23,SSW,198,2.0,2.0,42,0.00,,,0.00,Wunderground v.1.15,2013-01-20 18:30:00,
2013-01-20 12:40:00,32.8,11.6,30.23,South,181,3.0,3.0,41,0.00,,,0.00,Wunderground v.1.15,2013-01-20 18:40:00,
2013-01-20 12:45:00,33.4,12.2,30.22,SSW,208,3.0,4.0,41,0.00,,,0.00,Wunderground v.1.15,2013-01-20 18:45:00,
2013-01-20 12:50:00,33.9,13.2,30.22,SW,226,3.0,3.0,42,0.00,,,0.00,Wunderground v.1.15,2013-01-20 18:50:00,
2013-01-20 13:01:00,34.4,10.8,30.21,WSW,255,3.0,3.0,37,0.00,,,0.00,Wunderground v.1.15,2013-01-20 19:01:00,
2013-01-20 13:10:00,34.9,11.8,30.21,WSW,248,2.0,2.0,38,0.00,,,0.00,Wunderground v.1.15,2013-01-20 19:10:00,
2013-01-20 13:15:00,35.2,13.3,30.21,SW,235,2.0,2.0,40,0.00,,,0.00,Wunderground v.1.15,2013-01-20 19:15:00,
2013-01-20 13:20:00,35.2,13.3,30.20,SW,231,2.0,5.0,40,0.00,,,0.00,Wunderground v.1.15,2013-01-20 19:20:00,
2013-01-20 13:25:00,35.0,13.1,30.21,West,281,4.0,5.0,40,0.00,,,0.00,Wunderground v.1.15,2013-01-20 19:25:00,
2013-01-20 13:35:00,34.8,14.0,30.21,SW,225,3.0,4.0,42,0.00,,,0.00,Wunderground v.1.15,2013-01-20 19:35:00,
2013-01-20 13:40:00,35.5,14.1,30.21,South,190,2.0,2.0,41,0.00,,,0.00,Wunderground v.1.15,2013-01-20 19:40:00,
2013-01-20 13:45:00,35.7,14.3,30.21,SSW,204,1.0,2.0,41,0.00,,,0.00,Wunderground v.1.15,2013-01-20 19:45:00,
2013-01-20 13:55:00,35.2,14.4,30.21,SW,235,3.0,3.0,42,0.00,,,0.00,Wunderground v.1.15,2013-01-20 19:55:00,
2013-01-20 14:00:00,35.1,14.3,30.21,WSW,240,2.0,4.0,42,0.00,,,0.00,Wunderground v.1.15,2013-01-20 20:00:00,
2013-01-20 14:05:00,34.3,13.0,30.22,WSW,256,2.0,7.0,41,0.00,,,0.00,Wunderground v.1.15,2013-01-20 20:05:00,
2013-01-20 14:15:00,33.6,13.5,30.22,SW,224,3.0,3.0,43,0.00,,,0.00,Wunderground v.1.15,2013-01-20 20:15:00,
2013-01-20 14:20:00,33.3,13.7,30.22,WSW,256,3.0,3.0,44,0.00,,,0.00,Wunderground v.1.15,2013-01-20 20:20:00,
2013-01-20 14:25:00,32.9,14.4,30.22,SW,233,3.0,5.0,46,0.00,,,0.00,Wunderground v.1.15,2013-01-20 20:25:00,
2013-01-20 14:30:00,32.6,14.6,30.23,West,271,3.0,3.0,47,0.00,,,0.00,Wunderground v.1.15,2013-01-20 20:30:00,
2013-01-20 14:35:00,32.9,14.8,30.23,SSW,208,2.0,3.0,47,0.00,,,0.00,Wunderground v.1.15,2013-01-20 20:35:00,
2013-01-20 14:40:00,32.5,14.0,30.23,SW,233,1.0,1.0,46,0.00,,,0.00,Wunderground v.1.15,2013-01-20 20:40:00,
2013-01-20 14:50:00,32.1,14.1,30.23,SW,235,2.0,2.0,47,0.00,,,0.00,Wunderground v.1.15,2013-01-20 20:50:00,
2013-01-20 14:55:00,32.0,13.5,30.23,WSW,249,2.0,2.0,46,0.00,,,0.00,Wunderground v.1.15,2013-01-20 20:55:00,
2013-01-20 15:00:00,31.8,13.3,30.23,WSW,249,2.0,2.0,46,0.00,,,0.00,Wunderground v.1.15,2013-01-20 21:00:00,
2013-01-20 15:10:00,31.4,13.5,30.23,SW,231,2.0,3.0,47,0.00,,,0.00,Wunderground v.1.15,2013-01-20 21:10:00,
2013-01-20 15:15:00,31.0,12.6,30.23,WSW,239,2.0,4.0,46,0.00,,,0.00,Wunderground v.1.15,2013-01-20 21:15:00,
2013-01-20 15:20:00,31.0,13.6,30.24,SW,223,2.0,2.0,48,0.00,,,0.00,Wunderground v.1.15,2013-01-20 21:20:00,
2013-01-20 15:25:00,30.8,12.4,30.24,WNW,295,2.0,3.0,46,0.00,,,0.00,Wunderground v.1.15,2013-01-20 21:25:00,
2013-01-20 15:35:00,30.4,12.5,30.24,SW,226,2.0,2.0,47,0.00,,,0.00,Wunderground v.1.15,2013-01-20 21:35:00,
2013-01-20 15:40:00,30.3,12.5,30.23,WSW,250,2.0,4.0,47,0.00,,,0.00,Wunderground v.1.15,2013-01-20 21:40:00,
2013-01-20 15:45:00,30.2,12.4,30.24,WSW,255,2.0,4.0,47,0.00,,,0.00,Wunderground v.1.15,2013-01-20 21:45:00,
2013-01-20 15:55:00,30.4,13.5,30.24,SW,232,1.0,2.0,49,0.00,,,0.00,Wunderground v.1.15,2013-01-20 21:55:00,
2013-01-20 16:00:00,30.3,13.4,30.24,SW,219,2.0,2.0,49,0.00,,,0.00,Wunderground v.1.15,2013-01-20 22:00:00,
2013-01-20 16:10:00,30.2,13.3,30.24,SW,233,1.0,1.0,49,0.00,,,0.00,Wunderground v.1.15,2013-01-20 22:10:00,
2013-01-20 16:15:00,30.2,14.2,30.24,SW,228,2.0,2.0,51,0.00,,,0.00,Wunderground v.1.15,2013-01-20 22:15:00,
2013-01-20 16:20:00,30.2,14.2,30.24,SSW,200,1.0,1.0,51,0.00,,,0.00,Wunderground v.1.15,2013-01-20 22:20:00,
2013-01-20 16:25:00,30.1,13.7,30.24,SW,236,1.0,1.0,50,0.00,,,0.00,Wunderground v.1.15,2013-01-20 22:25:00,
2013-01-20 16:35:00,29.8,12.9,30.24,SW,217,1.0,2.0,49,0.00,,,0.00,Wunderground v.1.15,2013-01-20 22:35:00,
2013-01-20 16:40:00,29.6,12.8,30.24,SW,217,1.0,1.0,49,0.00,,,0.00,Wunderground v.1.15,2013-01-20 22:40:00,
2013-01-20 16:45:00,29.4,12.6,30.24,WSW,246,1.0,1.0,49,0.00,,,0.00,Wunderground v.1.15,2013-01-20 22:45:00,
2013-01-20 16:50:00,29.3,12.5,30.24,SW,233,1.0,1.0,49,0.00,,,0.00,Wunderground v.1.15,2013-01-20 22:50:00,
2013-01-20 17:00:00,29.0,12.2,30.24,SW,229,1.0,1.0,49,0.00,,,0.00,Wunderground v.1.15,2013-01-20 23:00:00,
2013-01-20 17:10:00,28.8,13.4,30.24,SW,226,1.0,2.0,52,0.00,,,0.00,Wunderground v.1.15,2013-01-20 23:10:00,
2013-01-20 17:15:00,28.7,13.3,30.24,SW,232,1.0,2.0,52,0.00,,,0.00,Wunderground v.1.15,2013-01-20 23:15:00,
2013-01-20 17:30:00,28.1,13.1,30.24,SW,222,1.0,1.0,53,0.00,,,0.00,Wunderground v.1.15,2013-01-20 23:30:00,
2013-01-20 17:35:00,27.8,12.9,30.25,West,278,1.0,2.0,53,0.00,,,0.00,Wunderground v.1.15,2013-01-20 23:35:00,
2013-01-20 17:40:00,27.5,12.6,30.25,SW,219,1.0,1.0,53,0.00,,,0.00,Wunderground v.1.15,2013-01-20 23:40:00,
2013-01-20 17:50:00,27.1,12.2,30.25,SW,222,1.0,5.0,53,0.00,,,0.00,Wunderground v.1.15,2013-01-20 23:50:00,
2013-01-20 17:55:00,26.9,12.0,30.25,WSW,250,1.0,5.0,53,0.00,,,0.00,Wunderground v.1.15,2013-01-20 23:55:00,
2013-01-20 18:00:00,26.7,12.3,30.25,SSW,195,1.0,1.0,54,0.00,,,0.00,Wunderground v.1.15,2013-01-21 00:00:00,
2013-01-20 18:10:00,26.4,12.4,30.25,SW,220,1.0,1.0,55,0.00,,,0.00,Wunderground v.1.15,2013-01-21 00:10:00,
2013-01-20 18:15:00,26.3,12.3,30.25,West,264,1.0,2.0,55,0.00,,,0.00,Wunderground v.1.15,2013-01-21 00:15:00,
2013-01-20 18:20:00,26.2,12.2,30.26,SW,228,1.0,2.0,55,0.00,,,0.00,Wunderground v.1.15,2013-01-21 00:20:00,
2013-01-20 18:25:00,26.2,12.2,30.26,WSW,242,1.0,2.0,55,0.00,,,0.00,Wunderground v.1.15,2013-01-21 00:25:00,
2013-01-20 18:35:00,26.2,12.6,30.27,East,92,1.0,1.0,56,0.00,,,0.00,Wunderground v.1.15,2013-01-21 00:35:00,
2013-01-20 18:40:00,26.2,13.0,30.27,West,266,2.0,3.0,57,0.00,,,0.00,Wunderground v.1.15,2013-01-21 00:40:00,
2013-01-20 18:45:00,26.3,13.1,30.27,South,187,2.0,3.0,57,0.00,,,0.00,Wunderground v.1.15,2013-01-21 00:45:00,
2013-01-20 18:50:00,26.4,13.6,30.27,SSW,211,2.0,2.0,58,0.00,,,0.00,Wunderground v.1.15,2013-01-21 00:50:00,
2013-01-20 19:00:00,26.5,12.9,30.28,SSW,204,1.0,2.0,56,0.00,,,0.00,Wunderground v.1.15,2013-01-21 01:00:00,
2013-01-20 19:05:00,26.4,12.8,30.28,WNW,284,2.0,2.0,56,0.00,,,0.00,Wunderground v.1.15,2013-01-21 01:05:00,
2013-01-20 19:15:00,26.3,12.3,30.28,SW,222,1.0,1.0,55,0.00,,,0.00,Wunderground v.1.15,2013-01-21 01:15:00,
2013-01-20 19:20:00,26.2,12.2,30.29,SSW,212,1.0,1.0,55,0.00,,,0.00,Wunderground v.1.15,2013-01-21 01:20:00,
2013-01-20 19:30:00,25.9,11.9,30.29,WSW,240,0.0,1.0,55,0.00,,,0.00,Wunderground v.1.15,2013-01-21 01:30:00,
2013-01-20 19:35:00,25.8,11.8,30.29,South,169,1.0,1.0,55,0.00,,,0.00,Wunderground v.1.15,2013-01-21 01:35:00,
2013-01-20 19:40:00,25.7,12.2,30.29,SSE,165,1.0,2.0,56,0.00,,,0.00,Wunderground v.1.15,2013-01-21 01:40:00,
2013-01-20 19:50:00,25.3,11.8,30.29,West,260,0.0,0.0,56,0.00,,,0.00,Wunderground v.1.15,2013-01-21 01:50:00,
2013-01-20 19:55:00,25.0,11.9,30.30,West,260,0.0,0.0,57,0.00,,,0.00,Wunderground v.1.15,2013-01-21 01:55:00,
2013-01-20 20:05:00,24.4,11.7,30.30,WSW,257,0.0,0.0,58,0.00,,,0.00,Wunderground v.1.15,2013-01-21 02:05:00,
2013-01-20 20:10:00,24.3,11.2,30.30,SSW,197,0.0,0.0,57,0.00,,,0.00,Wunderground v.1.15,2013-01-21 02:10:00,
2013-01-20 20:15:00,24.1,11.4,30.31,SSW,197,0.0,0.0,58,0.00,,,0.00,Wunderground v.1.15,2013-01-21 02:15:00,
2013-01-20 20:25:00,24.0,12.1,30.31,SSW,197,0.0,0.0,60,0.00,,,0.00,Wunderground v.1.15,2013-01-21 02:25:00,
2013-01-20 20:35:00,24.1,12.2,30.31,SSW,198,0.0,0.0,60,0.00,,,0.00,Wunderground v.1.15,2013-01-21 02:35:00,
2013-01-20 20:40:00,24.1,12.2,30.31,SSW,197,0.0,0.0,60,0.00,,,0.00,Wunderground v.1.15,2013-01-21 02:40:00,
2013-01-20 20:50:00,23.9,12.0,30.31,SW,224,0.0,0.0,60,0.00,,,0.00,Wunderground v.1.15,2013-01-21 02:50:00,
2013-01-20 20:55:00,23.6,11.7,30.30,SW,224,0.0,0.0,60,0.00,,,0.00,Wunderground v.1.15,2013-01-21 02:55:00,
2013-01-20 21:00:00,23.2,11.4,30.31,SW,225,0.0,0.0,60,0.00,,,0.00,Wunderground v.1.15,2013-01-21 03:00:00,
2013-01-20 21:10:00,22.7,11.6,30.31,SW,225,0.0,0.0,62,0.00,,,0.00,Wunderground v.1.15,2013-01-21 03:10:00,
2013-01-20 21:15:00,22.4,11.3,30.30,SW,225,0.0,0.0,62,0.00,,,0.00,Wunderground v.1.15,2013-01-21 03:15:00,
2013-01-20 21:25:00,22.0,11.3,30.31,SW,228,0.0,0.0,63,0.00,,,0.00,Wunderground v.1.15,2013-01-21 03:25:00,
2013-01-20 21:40:00,21.5,11.5,30.31,SW,228,0.0,0.0,65,0.00,,,0.00,Wunderground v.1.15,2013-01-21 03:40:00,
2013-01-20 21:45:00,21.4,11.8,30.32,SW,228,0.0,0.0,66,0.00,,,0.00,Wunderground v.1.15,2013-01-21 03:45:00,
2013-01-20 21:50:00,21.4,12.1,30.32,SW,228,0.0,0.0,67,0.00,,,0.00,Wunderground v.1.15,2013-01-21 03:50:00,
2013-01-20 22:00:00,21.7,12.1,30.31,SW,228,0.0,0.0,66,0.00,,,0.00,Wunderground v.1.15,2013-01-21 04:00:00,
2013-01-20 22:10:00,21.8,12.2,30.31,SW,228,0.0,0.0,66,0.00,,,0.00,Wunderground v.1.15,2013-01-21 04:10:00,
2013-01-20 22:20:00,21.6,12.0,30.31,SW,228,0.0,0.0,66,0.00,,,0.00,Wunderground v.1.15,2013-01-21 04:20:00,
2013-01-20 22:30:00,21.6,12.0,30.32,SW,228,0.0,0.0,66,0.00,,,0.00,Wunderground v.1.15,2013-01-21 04:30:00,
2013-01-20 22:40:00,21.5,11.9,30.32,SW,228,0.0,0.0,66,0.00,,,0.00,Wunderground v.1.15,2013-01-21 04:40:00,
2013-01-20 22:50:00,21.3,11.7,30.33,SW,228,0.0,0.0,66,0.00,,,0.00,Wunderground v.1.15,2013-01-21 04:50:00,
2013-01-20 22:55:00,21.2,11.9,30.33,SW,228,0.0,0.0,67,0.00,,,0.00,Wunderground v.1.15,2013-01-21 04:55:00,
2013-01-20 23:05:00,21.2,11.9,30.33,South,176,0.0,0.0,67,0.00,,,0.00,Wunderground v.1.15,2013-01-21 05:05:00,
2013-01-20 23:10:00,21.2,11.9,30.33,South,176,0.0,0.0,67,0.00,,,0.00,Wunderground v.1.15,2013-01-21 05:10:00,
2013-01-20 23:15:00,21.2,11.9,30.33,South,179,0.0,0.0,67,0.00,,,0.00,Wunderground v.1.15,2013-01-21 05:15:00,
2013-01-20 23:20:00,21.2,11.9,30.33,South,179,0.0,1.0,67,0.00,,,0.00,Wunderground v.1.15,2013-01-21 05:20:00,
2013-01-20 23:25:00,21.1,11.8,30.33,SSE,165,0.0,1.0,67,0.00,,,0.00,Wunderground v.1.15,2013-01-21 05:25:00,
2013-01-20 23:35:00,20.7,11.5,30.34,SSE,165,0.0,0.0,67,0.00,,,0.00,Wunderground v.1.15,2013-01-21 05:35:00,
2013-01-20 23:40:00,20.3,11.4,30.34,SSE,165,0.0,0.0,68,0.00,,,0.00,Wunderground v.1.15,2013-01-21 05:40:00,
2013-01-20 23:45:00,19.9,11.4,30.34,SSE,165,0.0,0.0,69,0.00,,,0.00,Wunderground v.1.15,2013-01-21 05:45:00,
2013-01-20 23:50:00,19.6,11.4,30.34,SSE,165,0.0,0.0,70,0.00,,,0.00,Wunderground v.1.15,2013-01-21 05:50:00,